createdAt,value
2022-10-17T00:00:43.364Z,2.90
2022-10-17T00:03:10.780Z,2.77
2022-10-17T00:05:45.323Z,3.13
2022-10-17T00:08:13.461Z,2.80
2022-10-17T00:10:40.892Z,2.60
2022-10-17T00:13:08.415Z,2.90
2022-10-17T00:15:35.470Z,2.57
2022-10-17T00:18:02.612Z,2.87
2022-10-17T00:20:30.526Z,2.50
2022-10-17T00:22:57.823Z,2.70
2022-10-17T00:25:24.917Z,2.97
2022-10-17T00:27:51.943Z,2.40
2022-10-17T00:30:19.016Z,2.87
2022-10-17T00:32:46.251Z,2.80
2022-10-17T00:35:13.291Z,2.80
2022-10-17T00:37:40.347Z,2.80
2022-10-17T00:40:07.694Z,2.77
2022-10-17T00:42:35.087Z,2.90
2022-10-17T00:45:02.121Z,2.80
2022-10-17T00:47:29.850Z,2.80
2022-10-17T00:49:57.185Z,2.80
2022-10-17T00:52:27.016Z,2.60
2022-10-17T00:55:01.271Z,2.77
2022-10-17T00:57:29.503Z,3.00
2022-10-17T00:59:57.494Z,2.90
2022-10-17T01:02:24.762Z,2.77
2022-10-17T01:04:55.043Z,2.83
2022-10-17T01:07:22.144Z,2.77
2022-10-17T01:09:49.446Z,3.00
2022-10-17T01:12:16.442Z,3.00
2022-10-17T01:14:46.509Z,2.80
2022-10-17T01:17:32.174Z,2.63
2022-10-17T01:20:05.231Z,2.90
2022-10-17T01:22:32.247Z,2.60
2022-10-17T01:25:17.871Z,2.53
2022-10-17T01:27:44.858Z,2.57
2022-10-17T01:30:14.648Z,2.60
2022-10-17T01:32:46.424Z,2.60
2022-10-17T01:35:20.879Z,2.70
2022-10-17T01:37:57.452Z,2.47
2022-10-17T01:40:33.455Z,2.60
2022-10-17T01:43:04.999Z,3.20
2022-10-17T01:45:40.801Z,3.17
2022-10-17T01:48:20.150Z,3.63
2022-10-17T01:50:55.407Z,3.60
2022-10-17T01:53:25.143Z,3.80
2022-10-17T01:55:53.188Z,3.93
2022-10-17T01:58:27.417Z,4.07
2022-10-17T02:00:55.439Z,4.03
2022-10-17T02:03:22.938Z,4.90
2022-10-17T02:05:49.960Z,3.80
2022-10-17T02:08:26.078Z,4.77
2022-10-17T02:11:02.354Z,4.17
2022-10-17T02:13:39.887Z,3.67
2022-10-17T02:16:17.735Z,3.63
2022-10-17T02:18:50.904Z,3.67
2022-10-17T02:21:26.890Z,4.10
2022-10-17T02:24:01.688Z,4.63
2022-10-17T02:26:34.754Z,4.90
2022-10-17T02:29:10.371Z,4.50
2022-10-17T02:31:40.065Z,4.00
2022-10-17T02:34:11.755Z,4.17
2022-10-17T02:36:45.233Z,4.37
2022-10-17T02:39:12.663Z,4.50
2022-10-17T02:41:40.867Z,4.80
2022-10-17T02:44:09.112Z,5.63
2022-10-17T02:46:37.748Z,5.50
2022-10-17T02:49:09.615Z,5.73
2022-10-17T02:51:36.604Z,5.87
2022-10-17T02:54:18.759Z,6.63
2022-10-17T02:56:55.482Z,7.03
2022-10-17T02:59:23.286Z,7.27
2022-10-17T03:01:51.585Z,7.40
2022-10-17T03:04:19.193Z,7.10
2022-10-17T03:06:47.552Z,6.77
2022-10-17T03:09:15.200Z,6.60
2022-10-17T03:11:42.265Z,7.70
2022-10-17T03:14:09.399Z,7.97
2022-10-17T03:16:36.471Z,6.97
2022-10-17T03:19:03.878Z,7.50
2022-10-17T03:21:31.086Z,7.20
2022-10-17T03:23:58.152Z,7.23
2022-10-17T03:26:25.220Z,7.37
2022-10-17T03:28:54.437Z,7.67
2022-10-17T03:31:21.941Z,7.63
2022-10-17T03:33:49.283Z,7.67
2022-10-17T03:36:17.270Z,7.40
2022-10-17T03:38:44.866Z,7.93
2022-10-17T03:41:12.105Z,9.27
2022-10-17T03:43:39.793Z,8.40
2022-10-17T03:46:07.846Z,7.93
2022-10-17T03:48:35.051Z,8.50
2022-10-17T03:51:03.118Z,9.20
2022-10-17T03:53:30.242Z,9.60
2022-10-17T03:55:57.742Z,9.30
2022-10-17T03:58:24.847Z,9.23
2022-10-17T04:00:52.433Z,9.00
2022-10-17T04:03:19.509Z,9.60
2022-10-17T04:05:46.543Z,10.23
2022-10-17T04:08:13.717Z,11.07
2022-10-17T04:10:40.755Z,10.30
2022-10-17T04:13:07.775Z,11.50
2022-10-17T04:15:34.805Z,11.07
2022-10-17T04:18:01.895Z,11.80
2022-10-17T04:20:29.002Z,12.27
2022-10-17T04:22:56.032Z,12.30
2022-10-17T04:25:23.098Z,12.43
2022-10-17T04:27:50.112Z,11.87
2022-10-17T04:30:17.326Z,12.63
2022-10-17T04:32:44.411Z,12.73
2022-10-17T04:35:11.518Z,13.20
2022-10-17T04:37:38.541Z,13.57
2022-10-17T04:40:05.841Z,12.13
2022-10-17T04:42:32.935Z,12.63
2022-10-17T04:45:00.031Z,12.90
2022-10-17T04:47:27.073Z,12.63
2022-10-17T04:49:54.139Z,13.17
2022-10-17T04:52:21.227Z,11.57
2022-10-17T04:54:48.256Z,11.30
2022-10-17T04:57:15.507Z,13.27
2022-10-17T04:59:42.554Z,13.97
2022-10-17T05:02:09.587Z,12.53
2022-10-17T05:04:36.607Z,12.23
2022-10-17T05:07:03.714Z,12.23
2022-10-17T05:09:31.081Z,11.97
2022-10-17T05:11:58.124Z,11.13
2022-10-17T05:14:25.197Z,11.20
2022-10-17T05:16:52.273Z,10.63
2022-10-17T05:19:19.323Z,11.20
2022-10-17T05:21:46.377Z,11.07
2022-10-17T05:24:14.735Z,11.87
2022-10-17T05:26:41.778Z,12.70
2022-10-17T05:29:08.911Z,12.23
2022-10-17T05:31:35.996Z,11.60
2022-10-17T05:34:03.923Z,11.97
2022-10-17T05:36:31.009Z,11.80
2022-10-17T05:38:58.018Z,11.03
2022-10-17T05:41:25.187Z,11.60
2022-10-17T05:43:52.243Z,11.80
2022-10-17T05:46:19.330Z,12.17
2022-10-17T05:48:46.366Z,11.20
2022-10-17T05:51:13.491Z,10.90
2022-10-17T05:53:41.276Z,10.87
2022-10-17T05:56:09.577Z,10.73
2022-10-17T05:58:49.657Z,11.23
2022-10-17T06:01:17.849Z,11.80
2022-10-17T06:03:44.962Z,10.53
2022-10-17T06:06:13.033Z,10.47
2022-10-17T06:08:40.284Z,11.47
2022-10-17T06:11:09.980Z,11.03
2022-10-17T06:13:37.745Z,11.57
2022-10-17T06:16:04.834Z,11.40
2022-10-17T06:18:31.964Z,11.80
2022-10-17T06:21:03.417Z,11.47
2022-10-17T06:23:30.445Z,11.83
2022-10-17T06:26:04.575Z,12.43
2022-10-17T06:28:31.973Z,12.83
2022-10-17T06:30:59.071Z,12.63
2022-10-17T06:33:26.102Z,14.00
2022-10-17T06:35:54.113Z,14.60
2022-10-17T06:38:21.192Z,13.87
2022-10-17T06:40:48.228Z,15.30
2022-10-17T06:43:15.291Z,14.87
2022-10-17T06:45:42.548Z,14.60
2022-10-17T06:48:09.695Z,14.93
2022-10-17T06:50:36.744Z,14.70
2022-10-17T06:53:03.872Z,14.53
2022-10-17T06:55:31.777Z,14.83
2022-10-17T06:57:58.860Z,13.97
2022-10-17T07:00:26.788Z,15.33
2022-10-17T07:02:53.872Z,14.47
2022-10-17T07:05:20.904Z,14.60
2022-10-17T07:07:50.967Z,14.73
2022-10-17T07:10:19.003Z,14.60
2022-10-17T07:12:46.219Z,14.50
2022-10-17T07:15:13.737Z,15.33
2022-10-17T07:17:40.815Z,15.43
2022-10-17T07:20:08.158Z,14.67
2022-10-17T07:22:35.198Z,14.30
2022-10-17T07:25:02.272Z,14.63
2022-10-17T07:27:29.671Z,14.73
2022-10-17T07:29:56.909Z,14.33
2022-10-17T07:32:24.019Z,14.83
2022-10-17T07:34:51.046Z,14.93
2022-10-17T07:37:18.115Z,15.27
2022-10-17T07:39:45.164Z,14.90
2022-10-17T07:42:12.195Z,15.20
2022-10-17T07:44:39.517Z,15.03
2022-10-17T07:47:06.676Z,15.30
2022-10-17T07:49:33.767Z,15.53
2022-10-17T07:52:00.910Z,14.93
2022-10-17T07:54:28.080Z,15.30
2022-10-17T07:56:55.147Z,15.13
2022-10-17T07:59:22.223Z,14.93
2022-10-17T08:01:49.356Z,14.87
2022-10-17T08:04:17.392Z,14.83
2022-10-17T08:06:44.792Z,15.17
2022-10-17T08:09:11.818Z,14.77
2022-10-17T08:11:38.864Z,14.67
2022-10-17T08:14:06.003Z,14.80
2022-10-17T08:16:33.068Z,14.40
2022-10-17T08:19:00.144Z,15.40
2022-10-17T08:21:27.297Z,15.20
2022-10-17T08:23:54.387Z,14.67
2022-10-17T08:26:21.917Z,15.30
2022-10-17T08:28:49.399Z,13.83
2022-10-17T08:31:20.466Z,15.10
2022-10-17T08:33:48.513Z,15.37
2022-10-17T08:36:16.474Z,14.27
2022-10-17T08:38:43.957Z,14.07
2022-10-17T08:41:14.152Z,14.17
2022-10-17T08:44:00.037Z,14.70
2022-10-17T08:46:31.930Z,14.47
2022-10-17T08:48:59.895Z,14.00
2022-10-17T08:51:29.758Z,14.17
2022-10-17T08:54:14.662Z,14.53
2022-10-17T08:56:49.854Z,13.97
2022-10-17T08:59:23.403Z,14.40
2022-10-17T09:01:55.871Z,14.50
2022-10-17T09:04:26.059Z,14.13
2022-10-17T09:07:01.052Z,14.77
2022-10-17T09:09:36.035Z,14.07
2022-10-17T09:12:15.388Z,14.53
2022-10-17T09:15:01.033Z,14.70
2022-10-17T09:17:28.373Z,14.47
2022-10-17T09:20:00.646Z,14.23
2022-10-17T09:22:30.951Z,15.33
2022-10-17T09:24:59.331Z,15.20
2022-10-17T09:27:32.227Z,15.30
2022-10-17T09:30:17.219Z,14.50
2022-10-17T09:33:00.204Z,14.93
2022-10-17T09:35:28.587Z,14.90
2022-10-17T09:37:55.774Z,14.73
2022-10-17T09:40:27.793Z,14.27
2022-10-17T09:42:54.981Z,15.03
2022-10-17T09:45:26.972Z,14.20
2022-10-17T09:47:59.596Z,14.90
2022-10-17T09:50:30.774Z,14.23
2022-10-17T09:53:00.101Z,14.13
2022-10-17T09:55:33.383Z,13.80
2022-10-17T09:58:05.097Z,13.93
2022-10-17T10:00:50.343Z,13.77
2022-10-17T10:03:27.278Z,14.50
2022-10-17T10:06:05.267Z,14.10
2022-10-17T10:08:52.585Z,13.70
2022-10-17T10:11:23.169Z,14.20
2022-10-17T10:13:50.562Z,13.67
2022-10-17T10:16:22.094Z,13.70
2022-10-17T10:18:51.008Z,13.80
2022-10-17T10:21:22.456Z,13.70
2022-10-17T10:24:04.680Z,13.77
2022-10-17T10:26:37.104Z,13.60
2022-10-17T10:29:07.248Z,13.50
2022-10-17T10:31:39.487Z,13.50
2022-10-17T10:34:25.604Z,13.20
2022-10-17T10:36:54.590Z,13.03
2022-10-17T10:39:27.758Z,12.73
2022-10-17T10:41:55.077Z,12.73
2022-10-17T10:44:24.713Z,13.27
2022-10-17T10:47:06.778Z,14.20
2022-10-17T10:49:33.851Z,12.03
2022-10-17T10:52:02.730Z,12.80
2022-10-17T10:54:33.249Z,13.50
2022-10-17T10:57:06.192Z,12.53
2022-10-17T10:59:36.363Z,13.07
2022-10-17T11:02:12.623Z,13.17
2022-10-17T11:04:47.973Z,11.77
2022-10-17T11:07:15.210Z,13.37
2022-10-17T11:10:00.913Z,12.87
2022-10-17T11:12:31.470Z,12.40
2022-10-17T11:15:02.003Z,12.70
2022-10-17T11:17:44.621Z,12.67
2022-10-17T11:20:17.630Z,11.83
2022-10-17T11:22:48.177Z,12.23
2022-10-17T11:25:15.292Z,12.87
2022-10-17T11:27:42.312Z,13.27
2022-10-17T11:30:13.132Z,13.13
2022-10-17T11:32:45.667Z,13.30
2022-10-17T11:35:20.324Z,12.57
2022-10-17T11:37:50.756Z,12.27
2022-10-17T11:40:26.193Z,12.83
2022-10-17T11:43:11.827Z,12.70
2022-10-17T11:45:43.927Z,11.87
2022-10-17T11:48:18.139Z,12.53
2022-10-17T11:53:58.265Z,12.13
2022-10-17T11:56:44.291Z,11.93
2022-10-17T11:59:11.322Z,11.70
2022-10-17T12:01:41.950Z,11.83
2022-10-17T12:04:15.212Z,11.80
2022-10-17T12:06:42.223Z,12.07
2022-10-17T12:09:12.250Z,11.30
2022-10-17T12:11:50.664Z,11.77
2022-10-17T12:14:53.139Z,11.63
2022-10-17T12:17:35.412Z,11.13
2022-10-17T12:20:34.706Z,10.80
2022-10-17T12:23:06.839Z,11.47
2022-10-17T12:28:14.465Z,11.60
2022-10-17T12:31:00.143Z,11.53
2022-10-17T12:33:38.453Z,11.07
2022-10-17T12:36:17.574Z,11.63
2022-10-17T12:38:51.690Z,11.50
2022-10-17T12:41:38.710Z,11.03
2022-10-17T12:44:15.253Z,10.80
2022-10-17T12:46:42.911Z,11.00
2022-10-17T12:49:28.632Z,10.67
2022-10-17T12:52:14.510Z,10.53
2022-10-17T12:54:53.567Z,11.27
2022-10-17T12:57:36.289Z,10.60
2022-10-17T13:00:05.628Z,11.00
2022-10-17T13:02:33.989Z,10.77
2022-10-17T13:05:07.853Z,10.73
2022-10-17T13:07:35.932Z,10.27
2022-10-17T13:10:05.185Z,10.93
2022-10-17T13:12:35.584Z,11.00
2022-10-17T13:15:07.402Z,11.43
2022-10-17T13:17:35.080Z,11.27
2022-10-17T13:20:02.479Z,11.63
2022-10-17T13:22:32.180Z,11.40
2022-10-17T13:25:26.108Z,11.63
2022-10-17T13:28:03.474Z,11.90
2022-10-17T13:30:32.489Z,12.03
2022-10-17T13:33:00.118Z,12.00
2022-10-17T13:35:41.973Z,12.90
2022-10-17T13:38:14.418Z,11.40
2022-10-17T13:40:50.108Z,12.10
2022-10-17T13:43:21.410Z,12.20
2022-10-17T13:45:50.433Z,12.40
2022-10-17T13:48:22.510Z,12.10
2022-10-17T13:50:51.362Z,12.50
2022-10-17T13:53:18.352Z,11.77
2022-10-17T13:56:15.840Z,12.23
2022-10-17T13:58:44.050Z,12.47
2022-10-17T14:01:12.968Z,13.30
2022-10-17T14:03:48.201Z,13.23
2022-10-17T14:06:18.042Z,12.73
2022-10-17T14:09:05.475Z,13.27
2022-10-17T14:11:35.556Z,12.97
2022-10-17T14:14:03.890Z,12.90
2022-10-17T14:16:35.962Z,12.87
2022-10-17T14:19:03.103Z,13.43
2022-10-17T14:21:43.225Z,14.10
2022-10-17T14:24:15.316Z,13.83
2022-10-17T14:26:52.726Z,12.83
2022-10-17T14:29:25.074Z,13.03
2022-10-17T14:31:57.801Z,13.73
2022-10-17T14:34:28.392Z,13.60
2022-10-17T14:36:55.550Z,13.73
2022-10-17T14:39:27.077Z,13.53
2022-10-17T14:41:54.640Z,14.23
2022-10-17T14:44:29.664Z,13.97
2022-10-17T14:47:30.891Z,13.40
2022-10-17T14:50:04.040Z,13.67
2022-10-17T14:52:32.486Z,14.60
2022-10-17T14:55:01.035Z,13.70
2022-10-17T14:57:34.402Z,14.17
2022-10-17T15:00:01.430Z,14.20
2022-10-17T15:02:30.084Z,13.63
2022-10-17T15:04:57.625Z,14.47
2022-10-17T15:07:24.756Z,14.17
2022-10-17T15:09:52.643Z,14.27
2022-10-17T15:12:22.131Z,13.67
2022-10-17T15:14:49.374Z,14.23
2022-10-17T15:17:18.892Z,13.93
2022-10-17T15:19:45.941Z,14.63
2022-10-17T15:22:13.074Z,15.43
2022-10-17T15:24:40.140Z,15.47
2022-10-17T15:27:16.474Z,14.60
2022-10-17T15:29:43.542Z,13.27
2022-10-17T15:32:10.631Z,14.63
2022-10-17T15:34:37.835Z,13.90
2022-10-17T15:37:05.594Z,14.70
2022-10-17T15:39:32.803Z,14.23
2022-10-17T15:41:59.995Z,14.90
2022-10-17T15:44:27.053Z,13.93
2022-10-17T15:46:54.538Z,14.50
2022-10-17T15:49:21.617Z,13.77
2022-10-17T15:51:54.369Z,14.20
2022-10-17T15:54:22.347Z,14.93
2022-10-17T15:56:53.534Z,14.03
2022-10-17T15:59:22.775Z,13.37
2022-10-17T16:01:49.841Z,13.57
2022-10-17T16:04:18.408Z,14.77
2022-10-17T16:06:45.553Z,14.47
2022-10-17T16:09:12.663Z,13.93
2022-10-17T16:11:40.843Z,15.30
2022-10-17T16:16:50.503Z,14.60
2022-10-17T16:19:17.638Z,15.30
2022-10-17T16:21:44.770Z,14.80
2022-10-17T16:24:12.464Z,14.70
2022-10-17T16:26:40.509Z,14.10
2022-10-17T16:29:09.248Z,14.53
2022-10-17T16:31:37.814Z,15.40
2022-10-17T16:34:06.420Z,14.90
2022-10-17T16:36:33.691Z,15.33
2022-10-17T16:39:00.954Z,13.97
2022-10-17T16:41:30.454Z,14.23
2022-10-17T16:43:58.995Z,14.70
2022-10-17T16:46:26.920Z,14.57
2022-10-17T16:48:54.336Z,14.77
2022-10-17T16:51:21.482Z,14.50
2022-10-17T16:53:50.236Z,14.73
2022-10-17T16:56:18.772Z,15.13
2022-10-17T16:58:46.272Z,14.43
2022-10-17T17:01:23.480Z,14.37
2022-10-17T17:03:51.039Z,14.13
2022-10-17T17:06:22.138Z,15.67
2022-10-17T17:08:49.160Z,15.20
2022-10-17T17:11:17.549Z,15.83
2022-10-17T17:13:44.904Z,15.80
2022-10-17T17:16:13.281Z,16.47
2022-10-17T17:18:40.349Z,15.53
2022-10-17T17:21:09.070Z,15.80
2022-10-17T17:23:37.081Z,14.57
2022-10-17T17:26:05.677Z,14.97
2022-10-17T17:28:33.407Z,15.73
2022-10-17T17:31:00.480Z,15.37
2022-10-17T17:33:29.757Z,15.80
2022-10-17T17:35:58.040Z,16.13
2022-10-17T17:38:25.253Z,15.43
2022-10-17T17:40:52.582Z,15.27
2022-10-17T17:43:19.717Z,15.23
2022-10-17T17:45:46.800Z,15.37
2022-10-17T17:48:14.016Z,14.60
2022-10-17T17:50:41.974Z,14.97
2022-10-17T17:53:14.166Z,14.67
2022-10-17T17:55:41.432Z,15.40
2022-10-17T17:58:08.498Z,15.17
2022-10-17T18:00:36.107Z,14.83
2022-10-17T18:03:03.300Z,15.83
2022-10-17T18:05:30.679Z,15.33
2022-10-17T18:07:57.794Z,15.00
2022-10-17T18:10:24.860Z,15.00
2022-10-17T18:12:52.157Z,15.00
2022-10-17T18:15:19.190Z,15.57
2022-10-17T18:17:46.241Z,15.60
2022-10-17T18:20:13.437Z,15.23
2022-10-17T18:22:40.499Z,15.83
2022-10-17T18:25:07.703Z,15.33
2022-10-17T18:27:35.007Z,15.20
2022-10-17T18:30:02.246Z,15.27
2022-10-17T18:32:31.402Z,14.90
2022-10-17T18:34:58.767Z,15.97
2022-10-17T18:37:25.871Z,15.70
2022-10-17T18:39:55.237Z,15.20
2022-10-17T18:42:22.299Z,15.47
2022-10-17T18:44:49.861Z,15.20
2022-10-17T18:47:16.915Z,15.03
2022-10-17T18:49:44.058Z,16.53
2022-10-17T18:52:11.143Z,15.97
2022-10-17T18:54:38.221Z,15.53
2022-10-17T18:57:05.488Z,15.50
2022-10-17T18:59:33.060Z,16.03
2022-10-17T19:02:00.157Z,16.37
2022-10-17T19:04:27.325Z,16.00
2022-10-17T19:06:54.351Z,16.40
2022-10-17T19:09:21.495Z,15.67
2022-10-17T19:11:48.564Z,15.77
2022-10-17T19:14:15.755Z,15.50
2022-10-17T19:16:44.684Z,15.60
2022-10-17T19:19:12.965Z,15.90
2022-10-17T19:21:40.431Z,15.27
2022-10-17T19:24:08.966Z,15.43
2022-10-17T19:26:36.912Z,15.93
2022-10-17T19:29:04.586Z,15.30
2022-10-17T19:31:32.195Z,15.10
2022-10-17T19:33:59.732Z,15.60
2022-10-17T19:36:30.767Z,15.57
2022-10-17T19:39:01.279Z,15.83
2022-10-17T19:41:28.677Z,14.97
2022-10-17T19:43:56.116Z,15.93
2022-10-17T19:46:24.149Z,15.93
2022-10-17T19:48:51.840Z,16.87
2022-10-17T19:51:19.753Z,16.50
2022-10-17T19:53:47.392Z,15.60
2022-10-17T19:56:18.449Z,15.20
2022-10-17T19:58:46.546Z,15.90
2022-10-17T20:01:15.230Z,16.53
2022-10-17T20:03:42.507Z,15.63
2022-10-17T20:06:09.947Z,15.80
2022-10-17T20:08:38.136Z,15.77
2022-10-17T20:11:09.506Z,15.67
2022-10-17T20:13:37.104Z,15.80
2022-10-17T20:16:04.739Z,16.77
2022-10-17T20:18:31.834Z,16.37
2022-10-17T20:21:03.270Z,15.57
2022-10-17T20:23:30.310Z,16.27
2022-10-17T20:26:25.476Z,15.60
2022-10-17T20:28:52.943Z,16.03
2022-10-17T20:31:20.151Z,16.17
2022-10-17T20:33:47.252Z,15.43
2022-10-17T20:36:15.039Z,16.23
2022-10-17T20:38:42.047Z,16.00
2022-10-17T20:41:09.943Z,15.70
2022-10-17T20:43:37.517Z,15.97
2022-10-17T20:46:21.938Z,15.53
2022-10-17T20:48:54.108Z,16.33
2022-10-17T20:51:21.754Z,15.53
2022-10-17T20:53:49.183Z,16.13
2022-10-17T20:56:23.533Z,15.73
2022-10-17T20:58:51.898Z,15.73
2022-10-17T21:01:19.025Z,15.43
2022-10-17T21:03:46.650Z,15.47
2022-10-17T21:06:14.304Z,15.80
2022-10-17T21:08:41.506Z,15.93
2022-10-17T21:11:12.474Z,16.27
2022-10-17T21:13:39.946Z,15.27
2022-10-17T21:16:27.303Z,15.67
2022-10-17T21:18:54.568Z,15.27
2022-10-17T21:21:23.519Z,14.40
2022-10-17T21:23:51.036Z,15.17
2022-10-17T21:26:18.550Z,14.63
2022-10-17T21:28:46.389Z,14.90
2022-10-17T21:31:23.744Z,14.93
2022-10-17T21:33:52.119Z,14.07
2022-10-17T21:36:19.572Z,14.10
2022-10-17T21:38:47.720Z,14.03
2022-10-17T21:41:15.801Z,15.10
2022-10-17T21:43:43.292Z,15.57
2022-10-17T21:46:12.162Z,14.03
2022-10-17T21:48:39.498Z,15.30
2022-10-17T21:51:07.962Z,15.50
2022-10-17T21:53:35.464Z,14.70
2022-10-17T21:56:03.403Z,15.40
2022-10-17T21:58:30.504Z,14.67
2022-10-17T22:01:07.990Z,15.17
2022-10-17T22:03:35.711Z,13.83
2022-10-17T22:06:13.022Z,14.17
2022-10-17T22:08:50.868Z,15.00
2022-10-17T22:11:20.401Z,15.67
2022-10-17T22:13:47.470Z,14.93
2022-10-17T22:16:15.598Z,15.20
2022-10-17T22:18:43.166Z,14.70
2022-10-17T22:21:13.102Z,14.70
2022-10-17T22:23:41.148Z,15.50
2022-10-17T22:26:08.610Z,15.83
2022-10-17T22:28:36.156Z,14.93
2022-10-17T22:31:03.839Z,14.53
2022-10-17T22:33:34.312Z,14.67
2022-10-17T22:36:01.582Z,15.80
2022-10-17T22:38:28.982Z,15.67
2022-10-17T22:40:56.002Z,15.57
2022-10-17T22:43:23.195Z,16.07
2022-10-17T22:45:57.049Z,15.67
2022-10-17T22:48:24.603Z,15.47
2022-10-17T22:50:52.380Z,15.40
2022-10-17T22:53:23.903Z,15.17
2022-10-17T22:55:51.888Z,15.27
2022-10-17T22:58:18.937Z,15.57
2022-10-17T23:00:45.967Z,15.53
2022-10-17T23:03:13.008Z,15.50
2022-10-17T23:05:40.319Z,15.40
2022-10-17T23:08:07.366Z,16.17
2022-10-17T23:10:34.499Z,15.80
2022-10-17T23:13:01.558Z,15.23
2022-10-17T23:15:28.585Z,15.73
2022-10-17T23:17:55.648Z,14.77
2022-10-17T23:20:22.663Z,15.13
2022-10-17T23:22:49.733Z,14.50
2022-10-17T23:25:16.833Z,14.27
2022-10-17T23:27:43.914Z,15.17
2022-10-17T23:30:14.216Z,14.10
2022-10-17T23:32:41.707Z,15.07
2022-10-17T23:35:09.511Z,15.23
2022-10-17T23:37:36.669Z,16.17
2022-10-17T23:40:04.184Z,15.57
2022-10-17T23:42:31.369Z,15.77
2022-10-17T23:44:58.405Z,14.13
2022-10-17T23:47:25.475Z,14.93
2022-10-17T23:49:52.536Z,14.53
2022-10-17T23:52:19.571Z,15.10
2022-10-17T23:54:46.624Z,14.90
2022-10-17T23:57:13.690Z,14.53
2022-10-17T23:59:40.793Z,13.93
